sensor_id;sensor_type;location;lat;lon;timestamp;pressure;altitude;pressure_sealevel;temperature;humidity
76260;BME280;65076;52.362;6.588;2023-02-16T00:01:52;102348.91;;;8.27;66.91
76260;BME280;65076;52.362;6.588;2023-02-16T00:04:23;102345.75;;;8.57;66.94
76260;BME280;65076;52.362;6.588;2023-02-16T00:06:55;102342.19;;;8.55;66.07
76260;BME280;65076;52.362;6.588;2023-02-16T00:09:23;102339.88;;;8.28;66.89
76260;BME280;65076;52.362;6.588;2023-02-16T00:11:52;102339.81;;;8.35;66.98
76260;BME280;65076;52.362;6.588;2023-02-16T00:14:38;102333.44;;;8.41;66.55
76260;BME280;65076;52.362;6.588;2023-02-16T00:17:10;102335.25;;;8.37;67.10
76260;BME280;65076;52.362;6.588;2023-02-16T00:19:39;102328.69;;;8.55;66.07
76260;BME280;65076;52.362;6.588;2023-02-16T00:22:09;102338.13;;;8.25;66.77
76260;BME280;65076;52.362;6.588;2023-02-16T00:24:37;102325.34;;;8.41;66.62
76260;BME280;65076;52.362;6.588;2023-02-16T00:27:11;102332.72;;;8.27;66.00
76260;BME280;65076;52.362;6.588;2023-02-16T00:29:43;102337.38;;;8.14;67.02
76260;BME280;65076;52.362;6.588;2023-02-16T00:32:11;102341.16;;;8.01;68.13
76260;BME280;65076;52.362;6.588;2023-02-16T00:34:40;102341.25;;;7.93;68.46
76260;BME280;65076;52.362;6.588;2023-02-16T00:37:11;102352.75;;;8.07;67.18
76260;BME280;65076;52.362;6.588;2023-02-16T00:39:41;102347.28;;;8.14;67.31
76260;BME280;65076;52.362;6.588;2023-02-16T00:42:11;102352.72;;;8.11;67.40
76260;BME280;65076;52.362;6.588;2023-02-16T00:44:44;102351.09;;;7.97;67.21
76260;BME280;65076;52.362;6.588;2023-02-16T00:47:17;102346.84;;;7.78;68.19
76260;BME280;65076;52.362;6.588;2023-02-16T00:49:49;102345.63;;;8.02;67.69
76260;BME280;65076;52.362;6.588;2023-02-16T00:52:33;102336.72;;;7.98;67.64
76260;BME280;65076;52.362;6.588;2023-02-16T00:55:05;102338.50;;;7.96;67.80
76260;BME280;65076;52.362;6.588;2023-02-16T00:57:37;102340.56;;;7.79;68.17
76260;BME280;65076;52.362;6.588;2023-02-16T01:00:13;102345.81;;;7.88;68.42
76260;BME280;65076;52.362;6.588;2023-02-16T01:02:45;102340.50;;;7.84;68.56
76260;BME280;65076;52.362;6.588;2023-02-16T01:05:14;102337.88;;;7.76;68.73
76260;BME280;65076;52.362;6.588;2023-02-16T01:07:44;102345.88;;;7.84;68.57
76260;BME280;65076;52.362;6.588;2023-02-16T01:10:29;102336.91;;;7.82;68.09
76260;BME280;65076;52.362;6.588;2023-02-16T01:13:33;102336.78;;;7.92;68.84
76260;BME280;65076;52.362;6.588;2023-02-16T01:16:11;102338.69;;;7.84;68.39
76260;BME280;65076;52.362;6.588;2023-02-16T01:18:41;102337.03;;;7.74;69.23
76260;BME280;65076;52.362;6.588;2023-02-16T01:21:09;102330.63;;;7.83;68.58
76260;BME280;65076;52.362;6.588;2023-02-16T01:23:38;102329.72;;;7.84;68.56
76260;BME280;65076;52.362;6.588;2023-02-16T01:26:13;102328.91;;;7.79;69.07
76260;BME280;65076;52.362;6.588;2023-02-16T01:28:43;102321.72;;;7.78;69.11
76260;BME280;65076;52.362;6.588;2023-02-16T01:31:12;102326.25;;;7.74;68.98
76260;BME280;65076;52.362;6.588;2023-02-16T01:33:41;102322.81;;;7.63;69.21
76260;BME280;65076;52.362;6.588;2023-02-16T01:36:19;102317.22;;;7.77;69.43
76260;BME280;65076;52.362;6.588;2023-02-16T01:38:51;102317.34;;;7.69;69.30
76260;BME280;65076;52.362;6.588;2023-02-16T01:41:25;102316.50;;;7.64;69.80
76260;BME280;65076;52.362;6.588;2023-02-16T01:44:08;102322.81;;;7.60;69.23
76260;BME280;65076;52.362;6.588;2023-02-16T01:46:43;102316.59;;;7.55;69.86
76260;BME280;65076;52.362;6.588;2023-02-16T01:49:18;102321.03;;;7.59;69.98
76260;BME280;65076;52.362;6.588;2023-02-16T01:51:50;102312.94;;;7.60;69.49
76260;BME280;65076;52.362;6.588;2023-02-16T01:54:32;102319.16;;;7.67;69.33
76260;BME280;65076;52.362;6.588;2023-02-16T01:57:12;102311.28;;;7.50;69.80
76260;BME280;65076;52.362;6.588;2023-02-16T02:00:09;102307.88;;;7.36;69.95
76260;BME280;65076;52.362;6.588;2023-02-16T02:02:42;102303.06;;;7.62;69.77
76260;BME280;65076;52.362;6.588;2023-02-16T02:05:22;102294.22;;;7.50;69.87
76260;BME280;65076;52.362;6.588;2023-02-16T02:08:19;102296.78;;;7.60;69.17
76260;BME280;65076;52.362;6.588;2023-02-16T02:11:02;102292.34;;;7.56;69.53
76260;BME280;65076;52.362;6.588;2023-02-16T02:13:38;102290.56;;;7.57;68.98
76260;BME280;65076;52.362;6.588;2023-02-16T02:16:15;102286.97;;;7.58;69.53
76260;BME280;65076;52.362;6.588;2023-02-16T02:18:46;102286.91;;;7.62;69.13
76260;BME280;65076;52.362;6.588;2023-02-16T02:21:35;102284.22;;;7.59;68.66
76260;BME280;65076;52.362;6.588;2023-02-16T02:25:02;102273.59;;;7.49;69.13
76260;BME280;65076;52.362;6.588;2023-02-16T02:27:51;102275.69;;;7.24;70.07
76260;BME280;65076;52.362;6.588;2023-02-16T02:30:38;102281.78;;;7.38;69.93
76260;BME280;65076;52.362;6.588;2023-02-16T02:33:24;102273.69;;;7.43;69.61
76260;BME280;65076;52.362;6.588;2023-02-16T02:36:09;102277.31;;;7.39;70.26
76260;BME280;65076;52.362;6.588;2023-02-16T02:38:55;102272.84;;;7.38;69.90
76260;BME280;65076;52.362;6.588;2023-02-16T02:41:35;102268.56;;;7.18;70.28
76260;BME280;65076;52.362;6.588;2023-02-16T02:44:29;102262.22;;;7.24;69.78
76260;BME280;65076;52.362;6.588;2023-02-16T02:47:00;102262.88;;;7.44;70.29
76260;BME280;65076;52.362;6.588;2023-02-16T02:49:28;102251.47;;;7.24;70.18
76260;BME280;65076;52.362;6.588;2023-02-16T02:51:56;102247.94;;;7.20;70.26
76260;BME280;65076;52.362;6.588;2023-02-16T02:54:28;102245.41;;;7.04;70.62
76260;BME280;65076;52.362;6.588;2023-02-16T02:57:18;102252.47;;;7.17;70.20
76260;BME280;65076;52.362;6.588;2023-02-16T03:00:12;102256.97;;;7.13;70.48
76260;BME280;65076;52.362;6.588;2023-02-16T03:03:07;102251.69;;;7.04;70.66
76260;BME280;65076;52.362;6.588;2023-02-16T03:05:43;102255.28;;;7.06;70.58
76260;BME280;65076;52.362;6.588;2023-02-16T03:08:16;102254.56;;;6.88;71.51
76260;BME280;65076;52.362;6.588;2023-02-16T03:10:52;102248.06;;;7.07;70.83
76260;BME280;65076;52.362;6.588;2023-02-16T03:13:44;102251.66;;;7.07;70.97
76260;BME280;65076;52.362;6.588;2023-02-16T03:16:21;102257.13;;;6.98;70.65
76260;BME280;65076;52.362;6.588;2023-02-16T03:18:54;102244.41;;;7.15;70.59
76260;BME280;65076;52.362;6.588;2023-02-16T03:21:41;102240.94;;;7.06;70.57
76260;BME280;65076;52.362;6.588;2023-02-16T03:24:29;102239.13;;;7.06;70.91
76260;BME280;65076;52.362;6.588;2023-02-16T03:27:18;102240.81;;;7.16;70.23
76260;BME280;65076;52.362;6.588;2023-02-16T03:30:09;102242.13;;;6.76;71.57
76260;BME280;65076;52.362;6.588;2023-02-16T03:32:40;102236.41;;;7.08;70.93
76260;BME280;65076;52.362;6.588;2023-02-16T03:35:09;102247.41;;;6.87;71.04
76260;BME280;65076;52.362;6.588;2023-02-16T03:37:38;102242.91;;;6.89;71.54
76260;BME280;65076;52.362;6.588;2023-02-16T03:40:09;102236.63;;;6.87;71.28
76260;BME280;65076;52.362;6.588;2023-02-16T03:43:01;102245.59;;;6.87;71.64
76260;BME280;65076;52.362;6.588;2023-02-16T03:45:31;102244.41;;;7.12;70.36
76260;BME280;65076;52.362;6.588;2023-02-16T03:48:07;102242.59;;;7.16;70.11
76260;BME280;65076;52.362;6.588;2023-02-16T03:50:36;102236.56;;;6.93;70.66
76260;BME280;65076;52.362;6.588;2023-02-16T03:53:04;102251.88;;;6.86;71.18
76260;BME280;65076;52.362;6.588;2023-02-16T03:55:36;102241.81;;;7.05;71.18
76260;BME280;65076;52.362;6.588;2023-02-16T03:58:05;102243.00;;;6.78;70.94
76260;BME280;65076;52.362;6.588;2023-02-16T04:00:36;102238.19;;;7.10;70.91
76260;BME280;65076;52.362;6.588;2023-02-16T04:03:07;102244.47;;;7.09;70.89
76260;BME280;65076;52.362;6.588;2023-02-16T04:05:35;102239.88;;;7.17;70.66
76260;BME280;65076;52.362;6.588;2023-02-16T04:08:04;102243.41;;;7.22;70.68
76260;BME280;65076;52.362;6.588;2023-02-16T04:10:34;102252.22;;;7.34;70.21
76260;BME280;65076;52.362;6.588;2023-02-16T04:13:02;102246.09;;;7.22;69.67
76260;BME280;65076;52.362;6.588;2023-02-16T04:15:30;102248.63;;;7.38;69.71
76260;BME280;65076;52.362;6.588;2023-02-16T04:17:58;102243.31;;;7.30;70.03
76260;BME280;65076;52.362;6.588;2023-02-16T04:20:30;102240.88;;;7.10;70.39
76260;BME280;65076;52.362;6.588;2023-02-16T04:23:00;102240.41;;;7.47;69.93
76260;BME280;65076;52.362;6.588;2023-02-16T04:25:28;102237.03;;;7.33;69.61
76260;BME280;65076;52.362;6.588;2023-02-16T04:27:57;102236.09;;;7.34;70.07
76260;BME280;65076;52.362;6.588;2023-02-16T04:30:27;102240.41;;;7.48;69.53
76260;BME280;65076;52.362;6.588;2023-02-16T04:32:57;102249.72;;;7.21;70.04
76260;BME280;65076;52.362;6.588;2023-02-16T04:35:25;102260.69;;;7.02;71.04
76260;BME280;65076;52.362;6.588;2023-02-16T04:37:54;102253.38;;;7.14;71.01
76260;BME280;65076;52.362;6.588;2023-02-16T04:40:22;102244.16;;;7.35;70.68
76260;BME280;65076;52.362;6.588;2023-02-16T04:42:50;102241.47;;;7.34;70.04
76260;BME280;65076;52.362;6.588;2023-02-16T04:45:18;102232.81;;;7.07;70.61
76260;BME280;65076;52.362;6.588;2023-02-16T04:47:45;102237.09;;;7.25;70.83
76260;BME280;65076;52.362;6.588;2023-02-16T04:50:13;102231.91;;;7.07;70.51
76260;BME280;65076;52.362;6.588;2023-02-16T04:52:41;102237.88;;;7.35;70.68
76260;BME280;65076;52.362;6.588;2023-02-16T04:55:10;102236.97;;;7.36;69.94
76260;BME280;65076;52.362;6.588;2023-02-16T04:57:38;102242.47;;;7.27;70.00
76260;BME280;65076;52.362;6.588;2023-02-16T05:00:09;102244.16;;;7.34;70.40
76260;BME280;65076;52.362;6.588;2023-02-16T05:02:38;102245.97;;;7.33;70.22
76260;BME280;65076;52.362;6.588;2023-02-16T05:05:07;102244.28;;;7.23;70.44
76260;BME280;65076;52.362;6.588;2023-02-16T05:07:34;102237.16;;;7.19;70.57
76260;BME280;65076;52.362;6.588;2023-02-16T05:10:03;102238.25;;;7.04;71.09
76260;BME280;65076;52.362;6.588;2023-02-16T05:12:34;102246.19;;;7.13;71.21
76260;BME280;65076;52.362;6.588;2023-02-16T05:15:19;102241.81;;;7.05;71.18
76260;BME280;65076;52.362;6.588;2023-02-16T05:17:48;102242.66;;;7.11;71.11
76260;BME280;65076;52.362;6.588;2023-02-16T05:20:16;102243.38;;;7.26;71.16
76260;BME280;65076;52.362;6.588;2023-02-16T05:22:44;102242.22;;;7.45;70.30
76260;BME280;65076;52.362;6.588;2023-02-16T05:25:11;102233.38;;;7.35;70.72
76260;BME280;65076;52.362;6.588;2023-02-16T05:27:41;102235.09;;;7.41;70.21
76260;BME280;65076;52.362;6.588;2023-02-16T05:30:10;102244.19;;;7.32;70.66
76260;BME280;65076;52.362;6.588;2023-02-16T05:32:39;102235.09;;;7.41;70.17
76260;BME280;65076;52.362;6.588;2023-02-16T05:35:07;102235.09;;;7.42;70.38
76260;BME280;65076;52.362;6.588;2023-02-16T05:37:35;102229.72;;;7.42;70.90
76260;BME280;65076;52.362;6.588;2023-02-16T05:40:03;102221.38;;;7.60;69.84
76260;BME280;65076;52.362;6.588;2023-02-16T05:42:31;102228.69;;;7.49;70.04
76260;BME280;65076;52.362;6.588;2023-02-16T05:45:00;102226.94;;;7.47;70.61
76260;BME280;65076;52.362;6.588;2023-02-16T05:47:28;102221.38;;;7.60;70.88
76260;BME280;65076;52.362;6.588;2023-02-16T05:49:56;102217.97;;;7.46;70.03
76260;BME280;65076;52.362;6.588;2023-02-16T05:52:24;102227.03;;;7.41;69.94
76260;BME280;65076;52.362;6.588;2023-02-16T05:54:52;102231.50;;;7.40;70.50
76260;BME280;65076;52.362;6.588;2023-02-16T05:57:20;102226.75;;;7.59;70.31
76260;BME280;65076;52.362;6.588;2023-02-16T05:59:48;102224.13;;;7.56;69.63
76260;BME280;65076;52.362;6.588;2023-02-16T06:02:17;102216.66;;;7.76;69.68
76260;BME280;65076;52.362;6.588;2023-02-16T06:04:45;102218.66;;;7.63;70.03
76260;BME280;65076;52.362;6.588;2023-02-16T06:07:12;102220.75;;;7.42;69.83
76260;BME280;65076;52.362;6.588;2023-02-16T06:09:40;102229.03;;;7.23;71.01
76260;BME280;65076;52.362;6.588;2023-02-16T06:12:08;102227.63;;;7.62;70.69
76260;BME280;65076;52.362;6.588;2023-02-16T06:14:36;102217.69;;;7.66;70.17
76260;BME280;65076;52.362;6.588;2023-02-16T06:17:04;102221.22;;;7.70;69.71
76260;BME280;65076;52.362;6.588;2023-02-16T06:19:33;102219.53;;;7.64;70.33
76260;BME280;65076;52.362;6.588;2023-02-16T06:22:01;102224.13;;;7.57;69.57
76260;BME280;65076;52.362;6.588;2023-02-16T06:24:28;102222.19;;;7.67;69.91
76260;BME280;65076;52.362;6.588;2023-02-16T06:26:56;102223.16;;;7.63;70.34
76260;BME280;65076;52.362;6.588;2023-02-16T06:29:24;102221.34;;;7.63;69.39
76260;BME280;65076;52.362;6.588;2023-02-16T06:31:52;102213.09;;;7.74;70.17
76260;BME280;65076;52.362;6.588;2023-02-16T06:34:20;102216.56;;;7.82;69.52
76260;BME280;65076;52.362;6.588;2023-02-16T06:36:49;102227.69;;;7.58;69.88
76260;BME280;65076;52.362;6.588;2023-02-16T06:39:17;102222.91;;;7.78;69.33
76260;BME280;65076;52.362;6.588;2023-02-16T06:41:45;102223.97;;;7.66;70.58
76260;BME280;65076;52.362;6.588;2023-02-16T06:44:15;102228.53;;;7.61;70.05
76260;BME280;65076;52.362;6.588;2023-02-16T06:46:45;102217.53;;;7.77;69.70
76260;BME280;65076;52.362;6.588;2023-02-16T06:49:14;102228.28;;;7.80;69.48
76260;BME280;65076;52.362;6.588;2023-02-16T06:51:44;102231.44;;;7.48;70.21
76260;BME280;65076;52.362;6.588;2023-02-16T06:54:14;102229.50;;;7.56;69.85
76260;BME280;65076;52.362;6.588;2023-02-16T06:56:42;102226.72;;;7.63;70.08
76260;BME280;65076;52.362;6.588;2023-02-16T06:59:10;102239.38;;;7.57;70.10
76260;BME280;65076;52.362;6.588;2023-02-16T07:01:38;102233.78;;;7.71;69.23
76260;BME280;65076;52.362;6.588;2023-02-16T07:04:09;102236.56;;;7.64;69.96
76260;BME280;65076;52.362;6.588;2023-02-16T07:06:37;102224.88;;;7.67;70.04
76260;BME280;65076;52.362;6.588;2023-02-16T07:09:05;102239.09;;;7.75;70.23
76260;BME280;65076;52.362;6.588;2023-02-16T07:11:35;102235.44;;;7.81;69.13
76260;BME280;65076;52.362;6.588;2023-02-16T07:14:03;102249.41;;;7.46;70.56
76260;BME280;65076;52.362;6.588;2023-02-16T07:16:31;102258.38;;;7.48;70.33
76260;BME280;65076;52.362;6.588;2023-02-16T07:18:59;102253.19;;;7.33;70.96
76260;BME280;65076;52.362;6.588;2023-02-16T07:21:27;102247.66;;;7.42;70.48
76260;BME280;65076;52.362;6.588;2023-02-16T07:23:54;102242.47;;;7.92;69.81
76260;BME280;65076;52.362;6.588;2023-02-16T07:26:22;102249.19;;;7.64;69.55
76260;BME280;65076;52.362;6.588;2023-02-16T07:28:51;102249.19;;;7.62;71.30
76260;BME280;65076;52.362;6.588;2023-02-16T07:31:19;102248.97;;;7.78;70.33
76260;BME280;65076;52.362;6.588;2023-02-16T07:33:51;102248.88;;;7.84;69.86
76260;BME280;65076;52.362;6.588;2023-02-16T07:36:19;102245.00;;;8.03;68.63
76260;BME280;65076;52.362;6.588;2023-02-16T07:38:47;102257.50;;;8.08;68.55
76260;BME280;65076;52.362;6.588;2023-02-16T07:41:14;102255.06;;;7.90;69.09
76260;BME280;65076;52.362;6.588;2023-02-16T07:43:42;102253.09;;;8.01;68.59
76260;BME280;65076;52.362;6.588;2023-02-16T07:46:12;102252.91;;;8.15;68.97
76260;BME280;65076;52.362;6.588;2023-02-16T07:48:39;102246.94;;;7.93;69.03
76260;BME280;65076;52.362;6.588;2023-02-16T07:51:07;102254.06;;;7.99;68.47
76260;BME280;65076;52.362;6.588;2023-02-16T07:53:35;102254.78;;;8.08;68.01
76260;BME280;65076;52.362;6.588;2023-02-16T07:56:03;102252.28;;;7.96;69.67
76260;BME280;65076;52.362;6.588;2023-02-16T07:58:31;102259.13;;;8.20;68.88
76260;BME280;65076;52.362;6.588;2023-02-16T08:01:07;102254.31;;;8.42;67.94
76260;BME280;65076;52.362;6.588;2023-02-16T08:03:37;102260.34;;;7.99;69.03
76260;BME280;65076;52.362;6.588;2023-02-16T08:06:06;102266.72;;;7.92;70.26
76260;BME280;65076;52.362;6.588;2023-02-16T08:08:35;102260.41;;;7.95;69.01
76260;BME280;65076;52.362;6.588;2023-02-16T08:11:07;102259.13;;;8.19;68.47
76260;BME280;65076;52.362;6.588;2023-02-16T08:13:36;102265.00;;;7.87;69.47
76260;BME280;65076;52.362;6.588;2023-02-16T08:16:07;102266.88;;;7.80;69.63
76260;BME280;65076;52.362;6.588;2023-02-16T08:18:37;102265.00;;;7.85;70.07
76260;BME280;65076;52.362;6.588;2023-02-16T08:21:08;102256.66;;;8.03;69.80
76260;BME280;65076;52.362;6.588;2023-02-16T08:23:40;102254.88;;;8.04;69.57
76260;BME280;65076;52.362;6.588;2023-02-16T08:26:14;102261.81;;;8.19;69.09
76260;BME280;65076;52.362;6.588;2023-02-16T08:28:43;102259.06;;;8.22;68.52
76260;BME280;65076;52.362;6.588;2023-02-16T08:31:12;102256.53;;;8.13;68.80
76260;BME280;65076;52.362;6.588;2023-02-16T08:33:44;102259.72;;;8.39;68.34
76260;BME280;65076;52.362;6.588;2023-02-16T08:36:16;102261.34;;;8.50;69.32
76260;BME280;65076;52.362;6.588;2023-02-16T08:38:46;102271.97;;;8.60;67.96
76260;BME280;65076;52.362;6.588;2023-02-16T08:41:16;102273.72;;;8.62;67.81
76260;BME280;65076;52.362;6.588;2023-02-16T08:43:44;102262.56;;;8.82;67.25
76260;BME280;65076;52.362;6.588;2023-02-16T08:46:13;102278.09;;;8.69;68.19
76260;BME280;65076;52.362;6.588;2023-02-16T08:48:43;102284.75;;;8.99;66.72
76260;BME280;65076;52.362;6.588;2023-02-16T08:51:13;102280.03;;;8.61;67.84
76260;BME280;65076;52.362;6.588;2023-02-16T08:53:43;102293.25;;;8.76;67.52
76260;BME280;65076;52.362;6.588;2023-02-16T08:56:12;102287.50;;;8.44;68.29
76260;BME280;65076;52.362;6.588;2023-02-16T08:58:42;102277.84;;;8.83;68.34
76260;BME280;65076;52.362;6.588;2023-02-16T09:01:09;102276.38;;;8.64;68.27
76260;BME280;65076;52.362;6.588;2023-02-16T09:03:39;102277.28;;;8.64;68.89
76260;BME280;65076;52.362;6.588;2023-02-16T09:06:10;102273.53;;;8.73;68.32
76260;BME280;65076;52.362;6.588;2023-02-16T09:08:40;102272.00;;;8.58;68.62
76260;BME280;65076;52.362;6.588;2023-02-16T09:11:11;102272.59;;;8.75;68.60
76260;BME280;65076;52.362;6.588;2023-02-16T09:13:41;102271.78;;;8.70;68.78
76260;BME280;65076;52.362;6.588;2023-02-16T09:16:11;102279.56;;;8.87;68.47
76260;BME280;65076;52.362;6.588;2023-02-16T09:18:41;102271.75;;;8.72;68.52
76260;BME280;65076;52.362;6.588;2023-02-16T09:21:13;102279.75;;;8.78;68.42
76260;BME280;65076;52.362;6.588;2023-02-16T09:23:46;102281.41;;;8.85;68.40
76260;BME280;65076;52.362;6.588;2023-02-16T09:26:17;102285.09;;;8.79;68.76
76260;BME280;65076;52.362;6.588;2023-02-16T09:28:47;102280.41;;;8.90;68.33
76260;BME280;65076;52.362;6.588;2023-02-16T09:31:18;102288.28;;;9.03;67.85
76260;BME280;65076;52.362;6.588;2023-02-16T09:33:53;102296.41;;;9.01;68.36
76260;BME280;65076;52.362;6.588;2023-02-16T09:36:23;102288.56;;;8.87;68.57
76260;BME280;65076;52.362;6.588;2023-02-16T09:38:53;102296.19;;;9.12;67.54
76260;BME280;65076;52.362;6.588;2023-02-16T09:41:31;102296.97;;;9.20;67.84
76260;BME280;65076;52.362;6.588;2023-02-16T09:44:12;102294.56;;;9.05;67.92
76260;BME280;65076;52.362;6.588;2023-02-16T09:46:48;102290.69;;;9.18;67.85
76260;BME280;65076;52.362;6.588;2023-02-16T09:49:23;102287.41;;;9.01;68.01
76260;BME280;65076;52.362;6.588;2023-02-16T09:52:07;102284.94;;;9.36;67.54
76260;BME280;65076;52.362;6.588;2023-02-16T09:54:45;102285.03;;;9.31;67.88
76260;BME280;65076;52.362;6.588;2023-02-16T09:57:21;102293.16;;;9.30;67.48
76260;BME280;65076;52.362;6.588;2023-02-16T10:00:02;102292.25;;;9.31;67.10
76260;BME280;65076;52.362;6.588;2023-02-16T10:02:41;102301.16;;;9.34;67.38
76260;BME280;65076;52.362;6.588;2023-02-16T10:05:19;102304.69;;;9.38;67.60
76260;BME280;65076;52.362;6.588;2023-02-16T10:08:00;102300.19;;;9.39;68.30
76260;BME280;65076;52.362;6.588;2023-02-16T10:10:39;102307.66;;;9.26;67.69
76260;BME280;65076;52.362;6.588;2023-02-16T10:13:20;102297.00;;;9.17;67.99
76260;BME280;65076;52.362;6.588;2023-02-16T10:15:53;102296.44;;;9.47;67.32
76260;BME280;65076;52.362;6.588;2023-02-16T10:18:27;102296.47;;;9.44;68.05
76260;BME280;65076;52.362;6.588;2023-02-16T10:21:01;102298.38;;;9.39;68.46
76260;BME280;65076;52.362;6.588;2023-02-16T10:23:43;102289.69;;;9.23;70.26
76260;BME280;65076;52.362;6.588;2023-02-16T10:26:16;102288.47;;;9.38;70.07
76260;BME280;65076;52.362;6.588;2023-02-16T10:28:52;102281.25;;;9.40;71.00
76260;BME280;65076;52.362;6.588;2023-02-16T10:31:24;102287.56;;;9.39;70.35
76260;BME280;65076;52.362;6.588;2023-02-16T10:34:08;102298.13;;;9.51;70.74
76260;BME280;65076;52.362;6.588;2023-02-16T10:37:09;102293.56;;;9.55;71.06
76260;BME280;65076;52.362;6.588;2023-02-16T10:39:52;102286.34;;;9.54;70.12
76260;BME280;65076;52.362;6.588;2023-02-16T10:42:37;102280.94;;;9.54;70.78
76260;BME280;65076;52.362;6.588;2023-02-16T10:45:20;102274.28;;;9.71;70.33
76260;BME280;65076;52.362;6.588;2023-02-16T10:47:53;102269.34;;;9.90;70.55
76260;BME280;65076;52.362;6.588;2023-02-16T10:50:24;102278.78;;;9.71;70.04
76260;BME280;65076;52.362;6.588;2023-02-16T10:53:08;102278.91;;;9.65;70.13
76260;BME280;65076;52.362;6.588;2023-02-16T10:55:41;102281.06;;;9.91;70.78
76260;BME280;65076;52.362;6.588;2023-02-16T10:58:16;102284.66;;;9.91;71.04
76260;BME280;65076;52.362;6.588;2023-02-16T11:00:52;102272.47;;;10.10;70.73
76260;BME280;65076;52.362;6.588;2023-02-16T11:03:29;102266.41;;;10.01;70.84
76260;BME280;65076;52.362;6.588;2023-02-16T11:06:12;102269.75;;;10.12;70.14
76260;BME280;65076;52.362;6.588;2023-02-16T11:08:47;102274.63;;;9.96;70.78
76260;BME280;65076;52.362;6.588;2023-02-16T11:11:18;102281.03;;;9.92;71.13
76260;BME280;65076;52.362;6.588;2023-02-16T11:13:48;102275.84;;;9.82;71.56
76260;BME280;65076;52.362;6.588;2023-02-16T11:16:26;102284.44;;;9.60;73.59
76260;BME280;65076;52.362;6.588;2023-02-16T11:18:57;102280.25;;;9.44;74.56
76260;BME280;65076;52.362;6.588;2023-02-16T11:21:43;102280.34;;;9.41;73.81
76260;BME280;65076;52.362;6.588;2023-02-16T11:24:24;102269.91;;;9.64;74.47
76260;BME280;65076;52.362;6.588;2023-02-16T11:27:04;102278.09;;;9.61;74.46
76260;BME280;65076;52.362;6.588;2023-02-16T11:29:40;102278.91;;;9.65;75.26
76260;BME280;65076;52.362;6.588;2023-02-16T11:32:10;102283.44;;;9.64;74.71
76260;BME280;65076;52.362;6.588;2023-02-16T11:34:42;102274.31;;;9.68;74.12
76260;BME280;65076;52.362;6.588;2023-02-16T11:37:20;102271.56;;;9.73;74.64
76260;BME280;65076;52.362;6.588;2023-02-16T11:39:55;102279.34;;;9.45;75.14
76260;BME280;65076;52.362;6.588;2023-02-16T11:42:38;102291.50;;;9.21;76.19
76260;BME280;65076;52.362;6.588;2023-02-16T11:45:22;102286.63;;;9.42;75.82
76260;BME280;65076;52.362;6.588;2023-02-16T11:48:00;102279.34;;;9.45;75.77
76260;BME280;65076;52.362;6.588;2023-02-16T11:50:34;102273.75;;;9.53;75.32
76260;BME280;65076;52.362;6.588;2023-02-16T11:53:14;102281.16;;;9.45;76.44
76260;BME280;65076;52.362;6.588;2023-02-16T11:55:49;102290.34;;;9.36;76.27
76260;BME280;65076;52.362;6.588;2023-02-16T11:58:21;102284.06;;;9.34;77.04
76260;BME280;65076;52.362;6.588;2023-02-16T12:00:58;102285.78;;;9.38;77.10
76260;BME280;65076;52.362;6.588;2023-02-16T12:03:58;102281.44;;;9.31;78.20
76260;BME280;65076;52.362;6.588;2023-02-16T12:06:46;102286.56;;;9.43;77.56
76260;BME280;65076;52.362;6.588;2023-02-16T12:09:30;102283.88;;;9.43;77.85
76260;BME280;65076;52.362;6.588;2023-02-16T12:12:10;102276.44;;;9.54;78.35
76260;BME280;65076;52.362;6.588;2023-02-16T12:14:47;102274.97;;;9.40;78.10
76260;BME280;65076;52.362;6.588;2023-02-16T12:17:36;102282.97;;;9.43;78.46
76260;BME280;65076;52.362;6.588;2023-02-16T12:20:29;102261.31;;;9.46;78.81
76260;BME280;65076;52.362;6.588;2023-02-16T12:23:20;102251.22;;;9.54;78.64
76260;BME280;65076;52.362;6.588;2023-02-16T12:26:05;102258.66;;;9.44;79.19
76260;BME280;65076;52.362;6.588;2023-02-16T12:28:44;102253.75;;;9.63;78.75
76260;BME280;65076;52.362;6.588;2023-02-16T12:31:27;102252.25;;;9.48;79.09
76260;BME280;65076;52.362;6.588;2023-02-16T12:34:09;102243.28;;;9.88;78.06
76260;BME280;65076;52.362;6.588;2023-02-16T12:36:52;102237.03;;;9.84;77.98
76260;BME280;65076;52.362;6.588;2023-02-16T12:39:30;102217.69;;;9.64;79.48
76260;BME280;65076;52.362;6.588;2023-02-16T12:42:21;102229.94;;;9.80;78.60
76260;BME280;65076;52.362;6.588;2023-02-16T12:45:19;102214.56;;;9.84;79.20
76260;BME280;65076;52.362;6.588;2023-02-16T12:47:53;102213.47;;;9.91;77.92
76260;BME280;65076;52.362;6.588;2023-02-16T12:50:26;102197.69;;;9.72;78.08
76260;BME280;65076;52.362;6.588;2023-02-16T12:53:02;102192.84;;;9.87;78.51
76260;BME280;65076;52.362;6.588;2023-02-16T12:55:37;102191.66;;;9.98;78.56
76260;BME280;65076;52.362;6.588;2023-02-16T12:58:15;102181.50;;;10.08;77.93
76260;BME280;65076;52.362;6.588;2023-02-16T13:00:51;102169.44;;;10.23;78.07
76260;BME280;65076;52.362;6.588;2023-02-16T13:03:28;102158.38;;;10.66;76.24
76260;BME280;65076;52.362;6.588;2023-02-16T13:06:17;102162.41;;;10.83;75.17
76260;BME280;65076;52.362;6.588;2023-02-16T13:08:54;102160.00;;;10.73;74.93
76260;BME280;65076;52.362;6.588;2023-02-16T13:11:33;102163.53;;;10.75;74.91
76260;BME280;65076;52.362;6.588;2023-02-16T13:14:19;102148.59;;;10.60;76.32
76260;BME280;65076;52.362;6.588;2023-02-16T13:16:52;102152.63;;;11.09;75.42
76260;BME280;65076;52.362;6.588;2023-02-16T13:19:25;102143.34;;;10.86;75.20
76260;BME280;65076;52.362;6.588;2023-02-16T13:22:18;102138.91;;;10.84;74.58
76260;BME280;65076;52.362;6.588;2023-02-16T13:25:11;102136.59;;;11.01;73.97
76260;BME280;65076;52.362;6.588;2023-02-16T13:28:07;102136.72;;;11.27;74.17
76260;BME280;65076;52.362;6.588;2023-02-16T13:31:08;102140.84;;;11.10;74.29
76260;BME280;65076;52.362;6.588;2023-02-16T13:34:04;102128.84;;;11.20;73.92
76260;BME280;65076;52.362;6.588;2023-02-16T13:37:11;102129.50;;;11.26;73.61
76260;BME280;65076;52.362;6.588;2023-02-16T13:40:13;102134.31;;;10.87;74.74